Time;durP1;ratioP1;P1;durP2;ratioP2;P2;SDS_P1;SDS_P2;PMS_P1;PMS_P2;Temp;Humidity;BMP_temperature;BMP_pressure;BME280_temperature;BME280_humidity;BME280_pressure;Samples;Min_cycle;Max_cycle;Signal;HPM_P1;HPM_P2
2022/05/30 00:01:21;;;;;;;1.63;1.52;;;;;;;10.41;nan;98100.75;4989891;28;20033;-63
2022/05/30 00:03:47;;;;;;;2.55;1.35;;;;;;;10.27;nan;98088.31;4988476;28;20042;-63
2022/05/30 00:06:15;;;;;;;1.42;1.33;;;;;;;10.25;nan;98097.78;4987962;28;20038;-63
2022/05/30 00:08:41;;;;;;;1.73;1.63;;;;;;;10.25;nan;98096.94;4988019;28;20057;-63
2022/05/30 00:11:09;;;;;;;1.52;1.42;;;;;;;10.23;nan;98103.81;4988921;28;20547;-63
2022/05/30 00:13:35;;;;;;;3.00;1.67;;;;;;;10.18;nan;98110.78;4988675;28;20066;-64
2022/05/30 00:16:12;;;;;;;2.65;1.67;;;;;;;10.15;nan;98091.19;4992600;28;20412;-64
2022/05/30 00:18:37;;;;;;;2.55;1.65;;;;;;;10.26;nan;98098.63;4989911;28;20369;-63
2022/05/30 00:21:04;;;;;;;1.85;1.75;;;;;;;10.28;nan;98102.81;4988217;28;20120;-64
2022/05/30 00:23:29;;;;;;;1.58;1.20;;;;;;;10.24;nan;98098.66;4988777;28;20042;-63
2022/05/30 00:25:55;;;;;;;1.50;1.40;;;;;;;10.21;nan;98105.59;4992608;28;20030;-64
2022/05/30 00:28:21;;;;;;;1.70;1.60;;;;;;;10.10;nan;98091.28;4991981;28;20081;-63
2022/05/30 00:30:47;;;;;;;3.70;1.52;;;;;;;10.17;nan;98104.81;4988030;28;20048;-63
2022/05/30 00:33:13;;;;;;;1.45;1.35;;;;;;;10.13;nan;98094.66;4990702;28;20042;-63
2022/05/30 00:35:41;;;;;;;2.10;1.80;;;;;;;10.11;nan;98094.69;4988793;28;20031;-63
2022/05/30 00:38:07;;;;;;;2.13;1.92;;;;;;;10.18;nan;98101.38;4988586;28;20038;-64
2022/05/30 00:40:34;;;;;;;1.73;1.63;;;;;;;10.07;nan;98091.38;4995498;28;20034;-64
2022/05/30 00:43:24;;;;;;;1.60;1.50;;;;;;;10.17;nan;98098.84;4990124;28;20311;-63
2022/05/30 00:45:50;;;;;;;1.95;1.60;;;;;;;10.06;nan;98082.00;4988543;28;20108;-63
2022/05/30 00:48:18;;;;;;;1.95;1.73;;;;;;;10.19;nan;98097.06;4987338;28;20037;-63
2022/05/30 00:50:45;;;;;;;1.92;1.67;;;;;;;10.10;nan;98086.16;4988821;28;20038;-63
2022/05/30 00:53:11;;;;;;;1.83;1.60;;;;;;;10.13;nan;98098.06;4988176;28;20492;-64
2022/05/30 00:55:36;;;;;;;1.70;1.60;;;;;;;10.03;nan;98084.66;4986574;28;20037;-64
2022/05/30 00:58:03;;;;;;;1.80;1.70;;;;;;;10.01;nan;98086.41;4988263;28;20029;-63
2022/05/30 01:00:28;;;;;;;1.55;1.45;;;;;;;10.05;nan;98090.59;4988868;28;20038;-63
2022/05/30 01:08:29;;;;;;;1.70;1.60;;;;;;;10.00;nan;98078.78;4992418;28;20069;-63
2022/05/30 01:10:54;;;;;;;4.15;1.77;;;;;;;10.03;nan;98082.09;4990819;28;20026;-64
2022/05/30 01:13:20;;;;;;;1.58;1.48;;;;;;;10.03;nan;98082.09;4996538;28;20033;-63
2022/05/30 01:15:45;;;;;;;1.65;1.55;;;;;;;10.03;nan;98086.38;4996187;28;20104;-64
2022/05/30 01:18:39;;;;;;;2.05;1.95;;;;;;;10.09;nan;98075.97;4994580;28;20389;-64
2022/05/30 01:21:16;;;;;;;2.75;1.70;;;;;;;10.01;nan;98068.47;4992414;28;20401;-64
2022/05/30 01:24:14;;;;;;;1.95;1.73;;;;;;;9.96;nan;98074.59;4994003;28;20613;-64
2022/05/30 01:27:11;;;;;;;1.60;1.50;;;;;;;9.90;nan;98070.47;5005093;28;20069;-64
2022/05/30 01:29:42;;;;;;;1.73;1.63;;;;;;;9.88;nan;98056.03;4964277;28;20050;-63
2022/05/30 01:32:07;;;;;;;1.92;1.83;;;;;;;9.89;nan;98060.25;4993266;28;20074;-63
2022/05/30 01:34:33;;;;;;;1.65;1.55;;;;;;;9.94;nan;98066.13;4994611;28;20033;-63
2022/05/30 01:36:59;;;;;;;2.17;1.90;;;;;;;9.91;nan;98063.63;4990339;28;20034;-64
2022/05/30 01:39:24;;;;;;;2.10;1.40;;;;;;;9.86;nan;98057.78;4993731;28;20040;-64
2022/05/30 01:41:50;;;;;;;2.20;1.70;;;;;;;9.87;nan;98085.94;4994756;28;20083;-63
2022/05/30 01:44:15;;;;;;;1.67;1.58;;;;;;;9.83;nan;98091.16;4991990;28;20026;-64
2022/05/30 01:46:41;;;;;;;3.13;2.00;;;;;;;9.73;nan;98076.88;4990400;28;20034;-63
2022/05/30 01:49:07;;;;;;;1.60;1.50;;;;;;;9.68;nan;98068.47;4994854;28;20046;-63
2022/05/30 01:51:33;;;;;;;1.50;1.50;;;;;;;9.71;nan;98066.72;4994841;28;20121;-63
2022/05/30 01:53:59;;;;;;;2.35;2.10;;;;;;;9.73;nan;98087.13;4992465;28;20061;-63
2022/05/30 01:56:24;;;;;;;2.28;1.55;;;;;;;9.66;nan;98083.03;4990088;28;20084;-64
2022/05/30 01:58:50;;;;;;;2.97;2.10;;;;;;;9.57;nan;98078.97;4993696;28;20048;-63
2022/05/30 02:01:21;;;;;;;2.83;1.70;;;;;;;9.56;nan;98087.53;5009929;28;20141;-64
2022/05/30 02:03:49;;;;;;;1.50;1.40;;;;;;;9.64;nan;98091.59;4991630;28;20038;-64
2022/05/30 02:06:15;;;;;;;1.90;1.80;;;;;;;9.53;nan;98093.56;4988985;28;20552;-63
2022/05/30 02:08:41;;;;;;;1.58;1.48;;;;;;;9.39;nan;98080.25;5009884;28;20068;-63
2022/05/30 02:11:08;;;;;;;1.40;1.30;;;;;;;9.39;nan;98090.47;4993512;28;20026;-64
2022/05/30 02:13:34;;;;;;;2.20;1.60;;;;;;;9.30;nan;98089.84;4990033;28;20034;-63
2022/05/30 02:18:52;;;;;;;1.45;1.35;;;;;;;9.21;nan;98093.44;4994322;28;20036;-63
2022/05/30 02:21:17;;;;;;;1.40;1.30;;;;;;;9.09;nan;98094.56;4993764;28;20120;-63
2022/05/30 02:23:43;;;;;;;2.38;1.60;;;;;;;8.97;nan;98088.88;4990300;28;20781;-63
2022/05/30 02:26:10;;;;;;;1.40;1.30;;;;;;;8.99;nan;98097.38;4991347;28;20069;-63
2022/05/30 02:28:35;;;;;;;1.67;1.50;;;;;;;9.07;nan;98100.59;4994217;28;20621;-63
2022/05/30 02:31:01;;;;;;;1.50;1.40;;;;;;;9.11;nan;98092.00;4992478;28;20128;-63
2022/05/30 02:38:54;;;;;;;1.40;1.30;;;;;;;9.13;nan;98091.06;4991145;28;20036;-63
2022/05/30 02:41:20;;;;;;;1.50;1.40;;;;;;;9.08;nan;98090.31;4991762;28;20030;-64
2022/05/30 02:43:46;;;;;;;2.50;1.87;;;;;;;8.98;nan;98090.56;4989725;28;20421;-63
2022/05/30 02:46:12;;;;;;;1.80;1.70;;;;;;;8.89;nan;98091.59;4990206;28;20365;-63
2022/05/30 02:48:37;;;;;;;2.45;1.60;;;;;;;8.83;nan;98095.97;4992098;28;20030;-63
2022/05/30 02:51:03;;;;;;;1.40;1.30;;;;;;;8.65;nan;98082.75;4988918;28;20120;-63
2022/05/30 02:53:28;;;;;;;3.40;1.60;;;;;;;8.64;nan;98096.38;4990026;28;20044;-63
2022/05/30 02:55:54;;;;;;;2.93;1.43;;;;;;;8.57;nan;98104.19;4994705;28;20038;-63
2022/05/30 02:58:19;;;;;;;1.80;1.50;;;;;;;8.52;nan;98100.88;4993325;28;20046;-63
2022/05/30 03:00:44;;;;;;;1.80;1.70;;;;;;;8.39;nan;98084.09;4989320;28;20556;-64
2022/05/30 03:03:10;;;;;;;1.70;1.60;;;;;;;8.43;nan;98095.94;4991023;28;20057;-64
2022/05/30 03:05:38;;;;;;;2.77;1.70;;;;;;;8.38;nan;98102.84;4993954;28;20104;-62
2022/05/30 03:08:07;;;;;;;1.92;1.83;;;;;;;8.27;nan;98083.41;4992829;28;20050;-62
2022/05/30 03:10:33;;;;;;;2.20;2.10;;;;;;;8.24;nan;98085.19;4988866;28;20148;-62
2022/05/30 03:12:59;;;;;;;2.17;2.00;;;;;;;8.28;nan;98102.97;4991688;28;20035;-61
2022/05/30 03:15:25;;;;;;;3.97;2.00;;;;;;;8.14;nan;98089.66;4993042;28;20031;-62
2022/05/30 03:17:51;;;;;;;2.33;2.07;;;;;;;8.23;nan;98106.50;4990725;28;20045;-61
2022/05/30 03:20:20;;;;;;;2.20;1.77;;;;;;;8.24;nan;98100.50;4990068;28;20141;-62
2022/05/30 03:22:49;;;;;;;1.60;1.50;;;;;;;8.22;nan;98104.81;4991670;28;20500;-62
2022/05/30 03:25:16;;;;;;;2.27;1.77;;;;;;;8.33;nan;98102.09;4990250;28;20778;-61
2022/05/30 03:27:41;;;;;;;1.77;1.67;;;;;;;8.34;nan;98101.22;4987896;28;20381;-61
2022/05/30 03:30:09;;;;;;;1.60;1.50;;;;;;;8.45;nan;98094.19;4989643;28;20038;-60
2022/05/30 03:32:34;;;;;;;3.57;2.00;;;;;;;8.54;nan;98099.97;4993847;28;20602;-61
2022/05/30 03:35:00;;;;;;;2.13;1.83;;;;;;;8.55;nan;98103.38;4991575;28;20026;-60
2022/05/30 03:37:27;;;;;;;2.53;1.73;;;;;;;8.50;nan;98093.25;4990257;28;20038;-61
2022/05/30 03:39:52;;;;;;;1.90;1.80;;;;;;;8.61;nan;98106.63;4991538;28;20522;-61
2022/05/30 03:42:18;;;;;;;2.10;1.90;;;;;;;8.65;nan;98103.19;4992710;28;20042;-60
2022/05/30 03:44:44;;;;;;;1.83;1.73;;;;;;;8.67;nan;98100.56;4992179;28;20045;-61
2022/05/30 03:47:10;;;;;;;1.80;1.70;;;;;;;8.67;nan;98115.91;4987838;28;20031;-61
2022/05/30 03:49:36;;;;;;;1.87;1.77;;;;;;;8.66;nan;98109.09;4988419;28;20038;-60
2022/05/30 03:52:03;;;;;;;2.10;1.90;;;;;;;8.64;nan;98106.59;4989140;28;20073;-60
2022/05/30 03:54:28;;;;;;;2.33;1.67;;;;;;;8.62;nan;98107.47;4988326;28;20044;-61
2022/05/30 03:56:54;;;;;;;1.97;1.77;;;;;;;8.68;nan;98118.44;4993239;28;20034;-60
2022/05/30 03:59:19;;;;;;;1.43;1.33;;;;;;;8.69;nan;98109.06;4993010;28;20061;-61
2022/05/30 04:01:45;;;;;;;1.33;1.30;;;;;;;8.75;nan;98118.31;4988694;28;20063;-61
2022/05/30 04:04:12;;;;;;;1.70;1.60;;;;;;;8.65;nan;98103.19;4988143;28;20029;-60
2022/05/30 04:06:38;;;;;;;1.80;1.70;;;;;;;8.80;nan;98113.94;4989030;28;20103;-60
2022/05/30 04:09:04;;;;;;;4.37;2.70;;;;;;;8.82;nan;98100.28;4988616;28;20025;-60
2022/05/30 04:11:30;;;;;;;2.13;1.92;;;;;;;8.91;nan;98102.63;4988526;28;20038;-60
2022/05/30 04:13:55;;;;;;;1.80;1.70;;;;;;;8.92;nan;98100.91;4987359;28;20033;-61
2022/05/30 04:16:21;;;;;;;2.17;1.95;;;;;;;8.99;nan;98105.88;4988006;28;20038;-61
2022/05/30 04:18:47;;;;;;;1.92;1.83;;;;;;;9.09;nan;98102.25;4988559;28;20038;-61
2022/05/30 04:21:12;;;;;;;1.90;1.60;;;;;;;9.14;nan;98100.44;4988320;28;20480;-61
2022/05/30 04:23:40;;;;;;;2.22;1.50;;;;;;;9.07;nan;98075.88;4992185;28;20030;-61
2022/05/30 04:26:07;;;;;;;2.75;1.80;;;;;;;9.30;nan;98108.59;4991691;28;20106;-60
2022/05/30 04:28:33;;;;;;;1.50;1.40;;;;;;;9.31;nan;98100.06;4990050;28;20598;-61
2022/05/30 04:30:58;;;;;;;2.85;1.30;;;;;;;9.49;nan;98114.16;4987869;28;20451;-60
2022/05/30 04:33:24;;;;;;;2.33;1.60;;;;;;;9.57;nan;98102.03;4988076;28;20034;-60
2022/05/30 04:35:49;;;;;;;1.48;1.38;;;;;;;9.60;nan;98101.94;4991084;28;20517;-60
2022/05/30 04:38:14;;;;;;;1.40;1.30;;;;;;;9.83;nan;98121.88;4990182;28;20030;-60
2022/05/30 04:40:40;;;;;;;1.92;1.55;;;;;;;9.93;nan;98106.22;4987348;28;20030;-59
2022/05/30 04:43:05;;;;;;;1.70;1.60;;;;;;;10.15;nan;98136.44;4992051;28;20038;-60
2022/05/30 04:45:31;;;;;;;2.05;1.23;;;;;;;10.29;nan;98140.38;4992076;28;20053;-62
2022/05/30 04:47:56;;;;;;;1.55;1.45;;;;;;;10.50;nan;98144.94;4988233;28;20049;-60
2022/05/30 04:50:22;;;;;;;1.20;1.20;;;;;;;10.53;nan;98144.84;4994131;28;20129;-60
2022/05/30 04:52:47;;;;;;;1.30;1.20;;;;;;;10.80;nan;98150.97;4993622;28;20034;-61
2022/05/30 04:55:15;;;;;;;1.23;1.23;;;;;;;10.88;nan;98141.31;4994932;28;20100;-60
2022/05/30 04:57:46;;;;;;;1.38;1.27;;;;;;;11.07;nan;98151.06;4991502;28;20042;-61
2022/05/30 05:00:14;;;;;;;1.60;1.50;;;;;;;11.23;nan;98132.63;4992433;28;20557;-62
2022/05/30 05:02:40;;;;;;;1.55;1.45;;;;;;;11.36;nan;98122.81;4994608;28;20038;-62
2022/05/30 05:05:06;;;;;;;1.30;1.27;;;;;;;11.67;nan;98138.94;4994348;28;20029;-63
2022/05/30 05:08:00;;;;;;;2.50;1.25;;;;;;;11.67;nan;98159.50;4991829;28;20200;-65
2022/05/30 05:10:31;;;;;;;1.30;1.30;;;;;;;11.70;nan;98158.56;4990419;28;20070;-61
2022/05/30 05:12:57;;;;;;;1.20;1.20;;;;;;;11.50;nan;98173.75;4992249;28;20045;-62
2022/05/30 05:15:22;;;;;;;1.90;1.38;;;;;;;11.61;nan;98162.25;4993115;28;20033;-61
2022/05/30 05:17:47;;;;;;;4.90;3.50;;;;;;;11.78;nan;98162.63;4991384;28;20116;-62
2022/05/30 05:20:14;;;;;;;2.33;2.00;;;;;;;11.88;nan;98160.59;4997836;28;20029;-62
2022/05/30 05:22:39;;;;;;;1.80;1.70;;;;;;;11.92;nan;98174.19;4992441;28;20030;-61
2022/05/30 05:25:07;;;;;;;2.00;1.90;;;;;;;12.05;nan;98175.47;4994087;28;20035;-61
2022/05/30 05:27:33;;;;;;;1.80;1.70;;;;;;;12.08;nan;98176.22;4994899;28;20058;-61
2022/05/30 05:29:58;;;;;;;2.88;2.63;;;;;;;11.98;nan;98168.84;4990801;28;20041;-65
2022/05/30 05:32:24;;;;;;;2.72;2.53;;;;;;;12.23;nan;98178.28;4992202;28;20034;-61
2022/05/30 05:34:50;;;;;;;2.28;2.17;;;;;;;12.32;nan;98167.69;4995341;28;20022;-62
2022/05/30 05:37:19;;;;;;;2.78;2.58;;;;;;;12.46;nan;98171.53;4996569;28;20046;-62
2022/05/30 05:39:44;;;;;;;2.88;2.53;;;;;;;12.35;nan;98179.59;4991862;28;20168;-62
2022/05/30 05:42:09;;;;;;;3.70;2.80;;;;;;;12.46;nan;98168.97;4990669;28;20026;-62
2022/05/30 05:44:36;;;;;;;3.13;2.92;;;;;;;12.55;nan;98176.38;4995043;28;20381;-62
2022/05/30 05:47:01;;;;;;;3.20;2.85;;;;;;;12.73;nan;98162.88;4994657;28;20111;-61
2022/05/30 05:49:27;;;;;;;3.70;3.00;;;;;;;13.14;nan;98169.16;4989590;28;20063;-62
2022/05/30 05:51:54;;;;;;;3.17;2.97;;;;;;;13.31;nan;98164.22;4992230;28;20103;-60
2022/05/30 05:54:23;;;;;;;3.00;2.75;;;;;;;13.47;nan;98173.03;4994805;28;20025;-61
2022/05/30 05:56:49;;;;;;;2.80;2.35;;;;;;;13.45;nan;98169.66;4993266;28;20113;-61
2022/05/30 05:59:14;;;;;;;2.40;2.20;;;;;;;13.56;nan;98170.13;4990740;28;20629;-61
2022/05/30 06:01:40;;;;;;;2.15;2.05;;;;;;;13.65;nan;98174.06;4993125;28;20515;-61
2022/05/30 06:04:07;;;;;;;2.55;1.80;;;;;;;13.76;nan;98187.38;4994941;28;20129;-61
2022/05/30 06:06:33;;;;;;;2.67;1.90;;;;;;;13.66;nan;98199.75;4990949;28;20031;-61
2022/05/30 06:09:01;;;;;;;2.35;2.25;;;;;;;13.79;nan;98194.16;4990210;28;20479;-61
2022/05/30 06:11:28;;;;;;;4.50;2.65;;;;;;;13.91;nan;98197.09;4991065;28;20038;-60
2022/05/30 06:13:54;;;;;;;2.13;1.92;;;;;;;14.07;nan;98195.59;4993879;28;20069;-62
2022/05/30 06:16:31;;;;;;;1.98;1.88;;;;;;;13.84;nan;98193.06;4992508;28;20037;-62
2022/05/30 06:19:00;;;;;;;2.67;1.90;;;;;;;13.86;nan;98187.84;4989911;28;20058;-61
2022/05/30 06:21:27;;;;;;;2.55;2.10;;;;;;;13.64;nan;98175.81;4990013;28;20034;-56
2022/05/30 06:23:54;;;;;;;1.80;1.70;;;;;;;13.53;nan;98184.84;4990019;28;20585;-62
2022/05/30 06:26:20;;;;;;;1.70;1.60;;;;;;;13.57;nan;98183.84;4990801;28;20036;-62
2022/05/30 06:28:46;;;;;;;1.63;1.52;;;;;;;13.72;nan;98194.38;4991630;28;20078;-62
2022/05/30 06:31:20;;;;;;;2.10;2.00;;;;;;;13.90;nan;98189.41;4993989;28;20065;-60
2022/05/30 06:33:46;;;;;;;2.40;2.20;;;;;;;13.68;nan;98190.25;4994563;28;20128;-61
2022/05/30 06:36:15;;;;;;;2.47;2.28;;;;;;;13.27;nan;98183.25;4990257;28;20037;-61
2022/05/30 06:38:41;;;;;;;2.70;2.05;;;;;;;13.12;nan;98169.19;4991304;28;20030;-62
2022/05/30 06:41:10;;;;;;;2.05;1.95;;;;;;;13.22;nan;98180.00;4994930;28;20508;-62
2022/05/30 06:43:36;;;;;;;2.85;2.25;;;;;;;12.94;nan;98177.56;4993293;28;20056;-62
2022/05/30 06:46:02;;;;;;;2.67;2.10;;;;;;;12.94;nan;98182.72;4990297;28;20486;-62
2022/05/30 06:48:27;;;;;;;1.95;1.85;;;;;;;12.81;nan;98179.69;4990919;28;20045;-62
2022/05/30 06:50:53;;;;;;;2.72;2.60;;;;;;;12.90;nan;98173.38;4995007;28;20038;-62
2022/05/30 06:53:18;;;;;;;1.40;1.30;;;;;;;12.94;nan;98185.28;4990599;28;20366;-62
2022/05/30 06:55:49;;;;;;;1.92;1.80;;;;;;;12.89;nan;98173.47;4987514;28;20152;-62
2022/05/30 06:58:15;;;;;;;1.80;1.70;;;;;;;13.24;nan;98178.19;4991742;28;20480;-63
2022/05/30 07:00:44;;;;;;;1.67;1.58;;;;;;;13.43;nan;98163.75;4992905;28;20054;-62
2022/05/30 07:03:12;;;;;;;1.85;1.75;;;;;;;13.62;nan;98177.59;4989439;28;20022;-63
2022/05/30 07:05:38;;;;;;;1.98;1.75;;;;;;;13.49;nan;98180.72;4987734;28;20030;-62
2022/05/30 07:08:04;;;;;;;3.92;1.60;;;;;;;13.48;nan;98185.03;4987301;28;20033;-62
2022/05/30 07:10:30;;;;;;;1.77;1.67;;;;;;;13.34;nan;98178.69;4986754;28;20388;-63
2022/05/30 07:12:57;;;;;;;1.55;1.48;;;;;;;13.62;nan;98185.31;4990520;28;20112;-62
2022/05/30 07:15:23;;;;;;;1.95;1.85;;;;;;;13.86;nan;98168.09;4990513;28;20332;-62
2022/05/30 07:17:49;;;;;;;2.40;1.77;;;;;;;14.16;nan;98182.31;4988954;28;20030;-63
2022/05/30 07:20:14;;;;;;;2.10;1.75;;;;;;;14.30;nan;98183.50;4990250;28;20080;-62
2022/05/30 07:22:40;;;;;;;2.75;1.50;;;;;;;14.47;nan;98187.06;4988765;28;20382;-63
2022/05/30 07:25:07;;;;;;;2.17;1.50;;;;;;;14.31;nan;98175.69;4988660;28;20042;-63
2022/05/30 07:27:32;;;;;;;1.92;1.77;;;;;;;14.61;nan;98183.91;4994219;28;20054;-62
2022/05/30 07:29:57;;;;;;;1.98;1.75;;;;;;;14.66;nan;98176.81;4993975;28;20038;-62
2022/05/30 07:32:23;;;;;;;2.85;1.52;;;;;;;14.88;nan;98171.59;4989727;28;20381;-62
2022/05/30 07:34:48;;;;;;;1.70;1.60;;;;;;;14.71;nan;98169.75;4989491;28;20030;-62
2022/05/30 07:37:14;;;;;;;1.90;1.80;;;;;;;15.06;nan;98165.63;4988228;28;20073;-62
2022/05/30 07:39:39;;;;;;;2.25;1.80;;;;;;;15.22;nan;98158.03;4989397;28;20037;-63
2022/05/30 07:42:06;;;;;;;2.08;1.98;;;;;;;15.28;nan;98165.47;4993834;28;20042;-63
2022/05/30 07:44:32;;;;;;;2.97;2.03;;;;;;;15.65;nan;98167.25;4991125;28;20635;-62
2022/05/30 07:46:57;;;;;;;1.90;1.80;;;;;;;15.57;nan;98157.28;4987833;28;20042;-62
2022/05/30 07:49:23;;;;;;;3.13;2.30;;;;;;;15.43;nan;98159.63;4990025;28;20610;-62
2022/05/30 07:51:49;;;;;;;2.75;2.10;;;;;;;15.80;nan;98169.94;4993174;28;20042;-62
2022/05/30 07:54:14;;;;;;;2.42;2.20;;;;;;;16.10;nan;98167.66;4990907;28;20339;-62
2022/05/30 07:56:40;;;;;;;3.40;2.00;;;;;;;16.11;nan;98161.56;4988301;28;20030;-63
2022/05/30 07:59:05;;;;;;;1.92;1.83;;;;;;;16.51;nan;98177.72;4991571;28;20026;-63
2022/05/30 08:01:31;;;;;;;1.70;1.70;;;;;;;16.50;nan;98176.88;4993614;28;20499;-62
2022/05/30 08:03:57;;;;;;;2.08;1.85;;;;;;;16.52;nan;98174.19;4990489;28;20037;-64
2022/05/30 08:06:25;;;;;;;2.47;2.28;;;;;;;16.75;nan;98168.75;4988859;28;20441;-64
2022/05/30 08:08:51;;;;;;;2.10;2.00;;;;;;;16.87;nan;98171.53;4991333;28;20030;-62
2022/05/30 08:11:17;;;;;;;2.55;2.35;;;;;;;17.16;nan;98182.97;4994014;28;20120;-63
2022/05/30 08:13:47;;;;;;;2.22;2.13;;;;;;;17.27;nan;98167.66;4991852;28;20023;-64
2022/05/30 08:16:18;;;;;;;2.10;2.00;;;;;;;17.29;nan;98178.81;4989329;28;20046;-62
2022/05/30 08:18:43;;;;;;;2.30;2.10;;;;;;;17.11;nan;98176.34;5004337;28;20090;-64
2022/05/30 08:21:09;;;;;;;2.33;2.17;;;;;;;17.27;nan;98177.22;4988865;28;20388;-61
2022/05/30 08:23:34;;;;;;;3.47;2.47;;;;;;;17.31;nan;98184.72;4990613;28;20084;-62
2022/05/30 08:26:00;;;;;;;2.30;2.20;;;;;;;17.16;nan;98182.13;4992556;28;20034;-63
2022/05/30 08:28:26;;;;;;;2.10;2.00;;;;;;;17.30;nan;98175.31;4995407;28;20045;-63
2022/05/30 08:30:52;;;;;;;4.28;2.75;;;;;;;17.24;nan;98180.78;4993516;28;20034;-63
2022/05/30 08:33:19;;;;;;;1.98;1.88;;;;;;;17.32;nan;98199.38;4991050;28;20074;-63
2022/05/30 08:35:45;;;;;;;2.03;1.92;;;;;;;17.36;nan;98193.09;4992755;28;20030;-63
2022/05/30 08:38:12;;;;;;;3.60;2.40;;;;;;;17.46;nan;98206.41;4989620;28;20030;-63
2022/05/30 08:43:34;;;;;;;2.00;1.90;;;;;;;17.59;nan;98191.91;4991325;28;20227;-63
2022/05/30 08:46:22;;;;;;;2.60;2.30;;;;;;;17.69;nan;98200.03;5006463;28;20035;-61
2022/05/30 08:49:00;;;;;;;2.65;2.40;;;;;;;17.77;nan;98200.44;4991761;28;20041;-68
2022/05/30 08:51:28;;;;;;;2.20;2.10;;;;;;;17.87;nan;98201.59;4993237;28;20582;-62
2022/05/30 08:54:17;;;;;;;4.97;2.30;;;;;;;17.84;nan;98201.78;4990936;28;20441;-63
2022/05/30 08:56:47;;;;;;;4.65;2.00;;;;;;;17.98;nan;98198.41;4994458;28;20038;-63
2022/05/30 08:59:48;;;;;;;2.10;1.90;;;;;;;18.26;nan;98191.59;4996342;28;20041;-63
2022/05/30 09:02:22;;;;;;;2.40;1.75;;;;;;;18.61;nan;98199.97;4990927;28;20571;-63
2022/05/30 09:04:54;;;;;;;2.33;2.20;;;;;;;18.78;nan;98206.78;4992029;28;20026;-63
2022/05/30 09:07:27;;;;;;;2.55;2.20;;;;;;;18.89;nan;98201.78;4992240;28;20088;-63
2022/05/30 09:10:02;;;;;;;2.05;1.92;;;;;;;18.95;nan;98213.56;4997991;28;20030;-63
2022/05/30 09:12:50;;;;;;;2.22;1.73;;;;;;;18.96;nan;98197.06;4998248;28;20057;-63
2022/05/30 09:15:26;;;;;;;2.00;1.90;;;;;;;18.78;nan;98191.19;4992676;28;20041;-64
2022/05/30 09:17:57;;;;;;;3.47;2.00;;;;;;;18.49;nan;98200.66;4994154;28;20455;-64
2022/05/30 09:20:24;;;;;;;3.90;1.90;;;;;;;18.57;nan;98205.44;4995409;28;20077;-63
2022/05/30 09:22:50;;;;;;;3.30;2.53;;;;;;;18.67;nan;98196.19;4996205;28;20041;-63
2022/05/30 09:28:05;;;;;;;2.58;2.20;;;;;;;18.68;nan;98183.09;4948041;28;1253938;-63
2022/05/30 09:30:40;;;;;;;3.70;2.92;;;;;;;18.52;nan;98184.94;4990218;28;20564;-64
2022/05/30 09:33:16;;;;;;;;;;;;;;;18.68;nan;98195.25;4993407;28;20030;-68
2022/05/30 09:35:42;;;;;;;2.42;2.20;;;;;;;18.89;nan;98165.41;4993281;28;20382;-67
2022/05/30 09:38:17;;;;;;;2.30;2.10;;;;;;;19.01;nan;98187.25;4991463;28;20034;-67
2022/05/30 09:40:54;;;;;;;2.55;2.17;;;;;;;19.05;nan;98171.34;4990794;28;20138;-66
2022/05/30 09:43:27;;;;;;;2.92;2.50;;;;;;;19.28;nan;98179.50;4990874;28;20062;-66
2022/05/30 09:45:54;;;;;;;4.75;2.30;;;;;;;19.00;nan;98169.97;4991314;28;20045;-67
2022/05/30 09:48:22;;;;;;;2.95;2.47;;;;;;;18.94;nan;98178.13;4991793;28;20034;-65
2022/05/30 09:50:50;;;;;;;4.60;2.63;;;;;;;18.83;nan;98163.19;4990661;28;20550;-66
2022/05/30 09:53:38;;;;;;;5.28;2.88;;;;;;;18.99;nan;98169.13;4991389;28;20057;-65
2022/05/30 09:56:03;;;;;;;2.38;2.17;;;;;;;18.99;nan;98163.94;4990602;28;20026;-64
2022/05/30 09:58:47;;;;;;;2.97;2.80;;;;;;;18.99;nan;98158.75;4993014;28;20081;-59
2022/05/30 10:01:23;;;;;;;4.13;2.88;;;;;;;18.84;nan;98161.44;4994601;28;20085;-60
2022/05/30 10:03:52;;;;;;;2.25;2.10;;;;;;;19.28;nan;98171.72;4990342;28;20096;-60
2022/05/30 10:06:24;;;;;;;2.50;2.38;;;;;;;19.41;nan;98168.28;4990861;28;20524;-61
2022/05/30 10:08:51;;;;;;;2.00;1.90;;;;;;;19.30;nan;98173.31;4993706;28;20657;-60
2022/05/30 10:11:32;;;;;;;2.60;2.40;;;;;;;19.48;nan;98184.34;4993308;28;20124;-57
2022/05/30 10:13:58;;;;;;;2.90;2.60;;;;;;;19.93;nan;98180.63;4990452;28;20142;-60
2022/05/30 10:16:34;;;;;;;3.60;2.40;;;;;;;20.26;nan;98180.22;5006253;28;20038;-61
2022/05/30 10:19:04;;;;;;;2.90;2.33;;;;;;;20.36;nan;98166.53;4995489;28;20473;-61
2022/05/30 10:28:33;;;;;;;4.80;1.73;;;;;;;20.27;nan;98182.72;4990249;28;20123;-61
2022/05/30 10:31:21;;;;;;;7.70;2.42;;;;;;;20.33;nan;98178.91;4992269;28;20125;-61
2022/05/30 10:33:47;;;;;;;5.05;2.15;;;;;;;20.37;nan;98178.59;4988821;28;20050;-60
2022/05/30 10:36:35;;;;;;;2.22;2.13;;;;;;;20.50;nan;98178.63;4991511;28;20420;-60
2022/05/30 10:39:48;;;;;;;4.07;1.95;;;;;;;20.54;nan;98179.28;4990386;28;20040;-60
2022/05/30 10:42:35;;;;;;;4.13;2.08;;;;;;;20.10;nan;98184.75;4958173;28;20244;-60
2022/05/30 10:45:08;;;;;;;4.28;2.10;;;;;;;19.57;nan;98183.78;4958320;28;20098;-57
2022/05/30 10:47:45;;;;;;;1.60;1.50;;;;;;;19.94;nan;98164.91;4958250;28;20042;-62
2022/05/30 10:50:19;;;;;;;2.20;2.00;;;;;;;20.29;nan;98175.66;4959723;28;20062;-60
2022/05/30 10:52:59;;;;;;;2.53;2.30;;;;;;;20.44;nan;98184.25;4958203;28;20117;-59
2022/05/30 10:55:47;;;;;;;2.60;2.00;;;;;;;20.89;nan;98181.16;4958214;28;20404;-60
2022/05/30 10:58:45;;;;;;;3.97;2.75;;;;;;;20.63;nan;98176.88;4959619;28;20061;-59
2022/05/30 11:01:32;;;;;;;8.02;7.20;;;;;;;20.60;nan;98182.31;4935827;28;20521;-59
2022/05/30 11:04:18;;;;;;;3.10;2.63;;;;;;;20.82;nan;98179.09;4960031;28;20074;-63
2022/05/30 11:06:46;;;;;;;2.58;1.83;;;;;;;21.13;nan;98189.09;4962607;28;20415;-59
2022/05/30 11:09:26;;;;;;;2.33;2.13;;;;;;;21.15;nan;98175.97;4959893;28;20174;-60
2022/05/30 11:12:27;;;;;;;3.03;2.38;;;;;;;20.87;nan;98177.84;4941933;28;20068;-60
2022/05/30 11:15:04;;;;;;;2.42;1.90;;;;;;;20.91;nan;98183.69;4888871;29;20242;-59
2022/05/30 11:17:39;;;;;;;3.88;2.42;;;;;;;20.68;nan;98187.00;4893577;29;20131;-59
2022/05/30 11:20:13;;;;;;;2.17;2.08;;;;;;;20.73;nan;98190.97;4938647;29;20479;-59
2022/05/30 11:22:49;;;;;;;2.92;1.83;;;;;;;20.37;nan;98172.56;4939788;29;20092;-59
2022/05/30 11:25:21;;;;;;;3.75;2.38;;;;;;;20.35;nan;98174.44;4942898;29;20565;-59
2022/05/30 11:27:55;;;;;;;2.30;2.10;;;;;;;20.36;nan;98189.13;4940739;29;20189;-60
2022/05/30 11:30:44;;;;;;;3.35;1.80;;;;;;;19.98;nan;98191.59;4942806;29;20035;-61
2022/05/30 11:33:58;;;;;;;2.53;2.33;;;;;;;19.81;nan;98192.66;4943111;29;20130;-61
2022/05/30 11:36:38;;;;;;;2.65;2.45;;;;;;;20.09;nan;98199.53;4940902;29;20187;-60
2022/05/30 11:39:37;;;;;;;2.30;2.10;;;;;;;19.83;nan;98193.38;4938127;29;20081;-61
2022/05/30 11:42:20;;;;;;;1.60;1.50;;;;;;;20.01;nan;98196.59;4941424;29;20039;-61
2022/05/30 11:44:59;;;;;;;2.00;1.88;;;;;;;20.22;nan;98189.16;4943234;29;20175;-61
2022/05/30 11:47:50;;;;;;;1.77;1.67;;;;;;;20.51;nan;98195.94;4939983;29;20069;-59
2022/05/30 11:50:27;;;;;;;1.88;1.75;;;;;;;20.52;nan;98197.59;4942591;28;20406;-54
2022/05/30 11:53:36;;;;;;;2.25;1.83;;;;;;;20.35;nan;98190.06;4989972;28;20069;-59
2022/05/30 11:56:23;;;;;;;3.10;1.73;;;;;;;20.67;nan;98180.09;4992917;28;20045;-61
2022/05/30 11:59:16;;;;;;;2.05;1.83;;;;;;;20.89;nan;98183.78;4988822;28;20443;-60
2022/05/30 12:01:46;;;;;;;3.75;2.22;;;;;;;20.90;nan;98193.28;4987502;28;20042;-61
2022/05/30 12:04:28;;;;;;;2.95;1.90;;;;;;;21.01;nan;98200.34;4988735;28;20300;-60
2022/05/30 12:07:12;;;;;;;3.35;2.28;;;;;;;20.73;nan;98190.97;4989020;28;20201;-61
2022/05/30 12:09:52;;;;;;;3.05;2.30;;;;;;;20.81;nan;98193.88;4987575;28;20144;-60
2022/05/30 12:12:17;;;;;;;3.25;3.03;;;;;;;20.99;nan;98191.81;4988738;28;20042;-60
2022/05/30 12:14:51;;;;;;;1.83;1.70;;;;;;;20.91;nan;98189.72;4988276;28;20108;-62
2022/05/30 12:23:59;;;;;;;1.55;1.45;;;;;;;20.67;nan;98177.50;4952540;28;20468;-60
2022/05/30 12:26:58;;;;;;;2.05;1.85;;;;;;;20.83;nan;98180.78;4949582;28;20158;-59
2022/05/30 12:29:38;;;;;;;6.40;2.00;;;;;;;20.91;nan;98176.69;4936113;28;20500;-59
2022/05/30 12:32:33;;;;;;;3.92;1.80;;;;;;;21.46;nan;98175.53;4951530;28;20145;-59
2022/05/30 12:34:58;;;;;;;1.80;1.70;;;;;;;21.68;nan;98180.91;4946552;28;20091;-59
2022/05/30 12:37:43;;;;;;;2.15;1.60;;;;;;;21.71;nan;98180.69;4951835;28;20042;-59
2022/05/30 12:40:26;;;;;;;2.92;2.40;;;;;;;21.65;nan;98167.22;4955204;28;20038;-60
2022/05/30 12:43:07;;;;;;;4.63;2.10;;;;;;;21.68;nan;98169.63;4952974;28;20584;-60